METAR Data
IDs: Format: Raw Decoded Include TAF

Data at: 0454 UTC 03 Jul 2022

KBWI 030414Z 00000KT 10SM TS FEW040CB SCT090 SCT120 BKN140 BKN170 BKN250 24/22 A2996 RMK AO2 LTG DSNT SE-W TSB13 CONS LTGICCC DSNT E-SE AND S-SW TS S-SW MOV E CB DSNT E-SE MOV E T02390217 $
KBWI 030354Z 00000KT 10SM FEW040 FEW070 SCT090 BKN140 BKN170 BKN250 24/21 A2995 RMK AO2 LTG DSNT SE-W SLP141 CONS LTGICCC DSNT E-S AND DSNT SW-W CB DSNT E-S AND DSNT SW-W MOV E T02390211 $
KBWI 030254Z 00000KT 10SM FEW040 FEW090 SCT150 BKN220 23/22 A2995 RMK AO2 LTG DSNT SE AND W RAE37 SLP141 FRQ LTGIC DSNT SE AND DSNT W CB DSNT SE AND DSNT W MOV SE P0000 60001 T02330217 50018 $
KBWI 030154Z 16003KT 10SM -RA FEW049 SCT075 BKN100 BKN150 BKN230 24/21 A2998 RMK AO2 LTG DSNT ALQDS RAE06B38 TSE16 SLP149 FRQ LTGICCG DSNT SE-S CB DSNT SE-S MOV SE P0001 T02390211 $
KBWI 030122Z 23008KT 200V270 10SM FEW055 FEW090 SCT100 BKN150 BKN230 24/22 A2996 RMK AO2 LTG DSNT ALQDS RAE06 TSE16 PRESRR FRQ LTGICCG DSNT NE-E AND DSNT SW CB DSNT NE-E AND DSNT S-SW MOV SE P0000 T02440222 $
KBWI 030054Z 30008KT 10SM -TSRA FEW043CB BKN100 BKN180 BKN230 24/21 A2993 RMK AO2 WSHFT 0027 LTG DSNT ALQDS SLP132 RAB25 TSB01 FRQ LTGICCG NE-E AND DSNT SW TS NE MOV E CB DSNT SW MOV SE P0000 T02440211 $
KBWI 030047Z 30009KT 10SM -TSRA FEW043CB BKN100 BKN180 BKN230 25/21 A2993 RMK AO2 WSHFT 0027 LTG DSNT ALQDS RAB25 TSB01 FRQ LTGICCG NE TS NE MOV SE P0000 T02500211 $
KBWI 030004Z 16005KT 10SM TS FEW043CB SCT100 BKN180 BKN230 29/23 A2990 RMK AO2 LTG DSNT W-NE TSB01 OCNL LTGICCG N AND DSNT W TS N MOV SE CB DSNT W MOV SE VCSH NW-NE T02940228 $
KBWI 022354Z 16006KT 10SM FEW043 SCT100 BKN180 BKN230 29/23 A2990 RMK AO2 LTG DSNT ALQDS SLP124 OCNL LTGIC DSNT W-NW CB DSNT W MOV SE AND DSNT NW MOV E VCSH NW-NE 60011 T02890233 10344 20283 56000 $
KBWI 022254Z 19004KT 10SM SCT038 SCT100 BKN150 BKN220 30/24 A2990 RMK AO2 SLP124 CB DSNT NW MOV SE T03000239 $
KBWI 022154Z 00000KT 9SM FEW038CB SCT070 BKN100 BKN220 29/24 A2989 RMK AO2 RAB21E44 TSB29E50 SLP121 CB N-NE MOV E AND DSNT NW MOV SE VCSH N-NE P0011 T02940244 $
KBWI 022138Z 04005KT 8SM R10/5500VP6000FT -TSRA SCT043CB SCT070 BKN100 BKN220 28/24 A2990 RMK AO2 RAB21 TSB29 OCNL LTGIC OHD TS OHD MOV E P0011 T02830244 $
KBWI 022132Z 02003KT 1SM R10/4500VP6000FT +TSRA SCT055CB SCT080 BKN100 BKN220 28/24 A2990 RMK AO2 RAB21 TSB29 OCNL LTGIC OHD TS OHD MOV E P0005 T02830239 $
KBWI 022127Z 00000KT 1 3/4SM R10/4500VP6000FT +RA SCT055 SCT080 BKN100 BKN220 29/23 A2990 RMK AO2 RAB21 P0000 T02940233 $
KBWI 022054Z 22008KT 190V250 10SM FEW045 SCT120 BKN220 32/22 A2990 RMK AO2 SLP124 T03220222 56009 $
KBWI 021954Z VRB06G14KT 10SM FEW045 BKN140 BKN220 33/21 A2991 RMK AO2 SLP127 T03280211 $
KBWI 021854Z 22007KT 10SM FEW047 FEW055 BKN100 BKN220 33/21 A2991 RMK AO2 SLP129 T03330206 $
KBWI 021754Z VRB04KT 10SM FEW035 FEW150 BKN220 BKN250 33/21 A2993 RMK AO2 SLP134 T03330206 10344 20261 58006
KBWI 021654Z 21007KT 10SM FEW020 FEW150 BKN220 BKN250 33/22 A2994 RMK AO2 SLP137 T03330217
KBWI 021554Z 22005KT 10SM FEW020 FEW150 BKN220 BKN250 32/21 A2995 RMK AO2 SLP139 T03220206
KBWI 021454Z VRB05KT 10SM FEW020 FEW140 BKN220 BKN250 32/22 A2995 RMK AO2 SLP140 T03170217 55001
KBWI 021354Z 24008KT 10SM FEW020 FEW150 BKN220 BKN250 29/21 A2995 RMK AO2 SLP139 T02890211
KBWI 021254Z 23007G15KT 10SM FEW020 FEW140 BKN220 BKN250 27/21 A2995 RMK AO2 SLP142 T02720206
KBWI 021154Z 22006KT 10SM FEW020 SCT120 BKN200 BKN250 26/21 A2995 RMK AO2 SLP142 T02610211 10267 20256 51009
KBWI 021054Z 23007KT 10SM FEW013 FEW120 BKN150 BKN250 26/21 A2995 RMK AO2 SLP139 VIRGA NW-N ACC DSNT SW T02560211
KBWI 020954Z 22005KT 10SM FEW120 BKN150 BKN250 26/21 A2994 RMK AO2 SLP136 ACC E T02610211
KBWI 020854Z 20004KT 10SM FEW130 BKN150 BKN250 26/21 A2993 RMK AO2 SLP133 T02610211 55003
KBWI 020754Z 22005KT 10SM FEW120 BKN140 BKN250 27/21 A2992 RMK AO2 SLP130 T02670211
KBWI 020654Z 22005KT 10SM BKN130 BKN250 26/21 A2993 RMK AO2 SLP134 T02610211
KBWI 020554Z 20005KT 10SM FEW140 SCT220 BKN250 26/22 A2994 RMK AO2 SLP136 T02610217 10300 20261 58005
KBWI 020454Z 18004KT 10SM FEW220 SCT250 26/22 A2995 RMK AO2 SLP140 T02610217 403560222
KBWI 020354Z 00000KT 10SM FEW180 SCT250 27/22 A2996 RMK AO2 SLP142 T02670222
KBWI 020254Z 16005KT 10SM FEW180 SCT250 27/22 A2995 RMK AO2 SLP142 T02720222 58006
KBWI 020154Z 15005KT 10SM FEW190 BKN250 27/23 A2997 RMK AO2 SLP146 T02720228
KBWI 020054Z 15006KT 9SM FEW160 SCT190 BKN250 28/21 A2997 RMK AO2 SLP146 T02830211
KBWI 012354Z 20005KT 10SM FEW048 BKN160 BKN190 BKN250 30/21 A2997 RMK AO2 RAB13E39 SLP148 CB DSNT SW-W AND DSNT NW MOV NE P0000 60000 T03000211 10356 20294 58006
KBWI 012254Z 19005KT 10SM FEW050 BKN120 BKN200 31/22 A2999 RMK AO2 LTG DSNT W AND NW SLP152 T03110217
KBWI 012154Z 19006KT 10SM FEW050 BKN120 BKN200 32/21 A2998 RMK AO2 LTG DSNT W SLP152 T03170211
KBWI 012054Z 15004KT 10SM SCT110 BKN250 33/22 A2999 RMK AO2 LTG DSNT NE RAE06 SLP154 P0000 60000 T03280217 55010
KBWI 011954Z 28006KT 10SM -RA FEW050 BKN100 OVC250 30/21 A2999 RMK AO2 LTG DSNT NE RAB51 SLP154 P0000 T03000211
KBWI 011854Z 23009KT 10SM SCT050 BKN120 BKN250 33/19 A3000 RMK AO2 LTG DSNT W-N SLP156 T03280194
KBWI 011754Z 20007KT 10SM SCT050 BKN250 34/20 A3002 RMK AO2 SLP164 T03440200 10350 20261 58015